createdAt,value
2017-08-06T00:00:27.073Z,1015.69
2017-08-06T00:01:37.320Z,1015.72
2017-08-06T00:02:47.237Z,1015.74
2017-08-06T00:03:57.176Z,1015.76
2017-08-06T00:05:07.109Z,1015.78
2017-08-06T00:06:17.062Z,1015.76
2017-08-06T00:07:27.283Z,1015.77
2017-08-06T00:08:37.227Z,1015.79
2017-08-06T00:09:47.160Z,1015.79
2017-08-06T00:10:57.099Z,1015.79
2017-08-06T00:12:07.334Z,1015.84
2017-08-06T00:13:17.288Z,1015.78
2017-08-06T00:14:27.527Z,1015.81
2017-08-06T00:15:37.162Z,1015.83
2017-08-06T00:16:47.397Z,1015.83
2017-08-06T00:17:57.642Z,1015.83
2017-08-06T00:19:07.590Z,1015.82
2017-08-06T00:20:17.532Z,1015.85
2017-08-06T00:21:27.788Z,1015.86
2017-08-06T00:22:37.111Z,1015.87
2017-08-06T00:23:47.345Z,1015.9
2017-08-06T00:24:57.291Z,1015.92
2017-08-06T00:26:06.916Z,1015.93
2017-08-06T00:27:16.552Z,1015.95
2017-08-06T00:28:26.486Z,1015.97
2017-08-06T00:29:36.096Z,1016.01
2017-08-06T00:30:45.402Z,1016
2017-08-06T00:31:54.705Z,1015.97
2017-08-06T00:33:04.703Z,1016
2017-08-06T00:34:14.628Z,1016.02
2017-08-06T00:35:24.885Z,1016.02
2017-08-06T00:36:34.527Z,1016.03
2017-08-06T00:37:44.751Z,1016.05
2017-08-06T00:38:54.695Z,1016.09
2017-08-06T00:40:04.325Z,1016.06
2017-08-06T00:41:14.571Z,1016.09
2017-08-06T00:42:23.896Z,1016.12
2017-08-06T00:43:33.822Z,1016.14
2017-08-06T00:44:43.755Z,1016.12
2017-08-06T00:45:53.694Z,1016.17
2017-08-06T00:47:03.006Z,1016.13
2017-08-06T00:48:13.288Z,1016.14
2017-08-06T00:49:23.537Z,1016.07
2017-08-06T00:50:33.766Z,1016.04
2017-08-06T00:51:44.010Z,1016.1
2017-08-06T00:52:54.235Z,1016.08
2017-08-06T00:54:04.187Z,1016.13
2017-08-06T00:55:14.134Z,1016.1
2017-08-06T00:56:24.390Z,1016.12
2017-08-06T00:57:33.702Z,1016.15
2017-08-06T00:58:43.622Z,1016.19
2017-08-06T00:59:53.901Z,1016.23
2017-08-06T01:01:03.522Z,1016.17
2017-08-06T01:02:13.134Z,1016.21
2017-08-06T01:03:23.075Z,1016.26
2017-08-06T01:04:32.688Z,1016.26
2017-08-06T01:05:42.012Z,1016.25
2017-08-06T01:06:51.931Z,1016.31
2017-08-06T01:08:01.854Z,1016.28
2017-08-06T01:09:12.093Z,1016.34
2017-08-06T01:10:21.700Z,1016.3
2017-08-06T01:11:31.323Z,1016.31
2017-08-06T01:12:41.560Z,1016.27
2017-08-06T01:13:51.501Z,1016.33
2017-08-06T01:15:01.429Z,1016.37
2017-08-06T01:16:11.372Z,1016.35
2017-08-06T01:17:21.619Z,1016.38
2017-08-06T01:18:31.547Z,1016.39
2017-08-06T01:19:41.168Z,1016.41
2017-08-06T01:20:51.415Z,1016.4
2017-08-06T01:22:01.030Z,1016.39
2017-08-06T01:23:10.637Z,1016.44
2017-08-06T01:24:20.566Z,1016.41
2017-08-06T01:25:30.498Z,1016.42
2017-08-06T01:26:40.419Z,1016.44
2017-08-06T01:27:50.354Z,1016.45
2017-08-06T01:28:59.969Z,1016.45
2017-08-06T01:30:10.199Z,1016.45
2017-08-06T01:31:20.141Z,1016.46
2017-08-06T01:32:30.073Z,1016.52
2017-08-06T01:33:39.991Z,1016.49
2017-08-06T01:34:50.229Z,1016.53
2017-08-06T01:36:00.161Z,1016.48
2017-08-06T01:37:09.793Z,1016.49
2017-08-06T01:38:19.131Z,1016.55
2017-08-06T01:39:28.126Z,1016.53
2017-08-06T01:40:38.377Z,1016.56
2017-08-06T01:41:48.622Z,1016.54
2017-08-06T01:42:58.549Z,1016.56
2017-08-06T01:44:08.798Z,1016.54
2017-08-06T01:45:18.738Z,1016.54
2017-08-06T01:46:28.675Z,1016.58
2017-08-06T01:47:38.611Z,1016.61
2017-08-06T01:48:48.850Z,1016.55
2017-08-06T01:49:59.087Z,1016.54
2017-08-06T01:51:09.026Z,1016.61
2017-08-06T01:52:18.969Z,1016.59
2017-08-06T01:53:28.595Z,1016.59
2017-08-06T01:54:38.225Z,1016.59
2017-08-06T01:55:48.458Z,1016.65
2017-08-06T01:56:59.098Z,1016.66
2017-08-06T01:58:08.148Z,1016.66
2017-08-06T01:59:18.376Z,1016.65
2017-08-06T02:00:28.621Z,1016.66
2017-08-06T02:01:38.858Z,1016.66
2017-08-06T02:02:48.790Z,1016.67
2017-08-06T02:03:58.731Z,1016.64
2017-08-06T02:05:08.968Z,1016.62
2017-08-06T02:06:19.198Z,1016.68
2017-08-06T02:07:28.505Z,1016.67
2017-08-06T02:08:38.430Z,1016.64
2017-08-06T02:09:48.041Z,1016.72
2017-08-06T02:10:58.280Z,1016.67
2017-08-06T02:12:07.588Z,1016.71
2017-08-06T02:13:17.504Z,1016.69
2017-08-06T02:14:27.736Z,1016.74
2017-08-06T02:15:37.661Z,1016.73
2017-08-06T02:16:47.900Z,1016.72
2017-08-06T02:17:57.527Z,1016.76
2017-08-06T02:19:07.475Z,1016.72
2017-08-06T02:20:17.411Z,1016.74
2017-08-06T02:21:27.642Z,1016.79
2017-08-06T02:22:37.880Z,1016.84
2017-08-06T02:23:47.825Z,1016.83
2017-08-06T02:24:57.759Z,1016.89
2017-08-06T02:26:07.702Z,1016.86
2017-08-06T02:27:16.705Z,1016.89
2017-08-06T02:28:26.942Z,1016.89
2017-08-06T02:29:36.862Z,1016.84
2017-08-06T02:30:47.097Z,1016.86
2017-08-06T02:31:57.033Z,1016.88
2017-08-06T02:33:06.663Z,1016.9
2017-08-06T02:34:16.279Z,1016.87
2017-08-06T02:35:25.898Z,1016.89
2017-08-06T02:36:36.132Z,1016.87
2017-08-06T02:37:46.074Z,1016.85
2017-08-06T02:38:56.313Z,1016.86
2017-08-06T02:40:06.243Z,1016.87
2017-08-06T02:41:16.176Z,1016.87
2017-08-06T02:42:26.100Z,1016.88
2017-08-06T02:43:35.716Z,1016.85
2017-08-06T02:44:45.637Z,1016.88
2017-08-06T02:45:55.626Z,1016.85
2017-08-06T02:47:05.946Z,1016.85
2017-08-06T02:48:15.882Z,1016.91
2017-08-06T02:49:26.115Z,1016.93
2017-08-06T02:50:35.742Z,1016.89
2017-08-06T02:51:45.856Z,1016.87
2017-08-06T02:52:55.786Z,1016.84
2017-08-06T02:54:06.034Z,1016.84
2017-08-06T02:55:15.964Z,1016.84
2017-08-06T02:56:25.597Z,1016.86
2017-08-06T02:57:35.218Z,1016.84
2017-08-06T02:58:45.156Z,1016.85
2017-08-06T02:59:54.772Z,1016.9
2017-08-06T03:01:04.710Z,1016.93
2017-08-06T03:02:14.939Z,1016.91
2017-08-06T03:03:24.874Z,1016.92
2017-08-06T03:04:34.807Z,1016.99
2017-08-06T03:05:44.749Z,1016.94
2017-08-06T03:06:54.999Z,1016.98
2017-08-06T03:08:04.617Z,1016.99
2017-08-06T03:09:14.854Z,1017
2017-08-06T03:10:25.077Z,1017
2017-08-06T03:11:34.389Z,1017.01
2017-08-06T03:12:44.343Z,1016.99
2017-08-06T03:16:26.659Z,1017
2017-08-06T03:17:36.285Z,1017.01
2017-08-06T03:18:46.203Z,1017.01
2017-08-06T03:19:56.434Z,1017.05
2017-08-06T03:21:06.670Z,1017.01
2017-08-06T03:22:16.294Z,1017.01
2017-08-06T03:23:26.539Z,1017.03
2017-08-06T03:24:36.869Z,1017.04
2017-08-06T03:25:46.810Z,1017.05
2017-08-06T03:26:56.737Z,1017.08
2017-08-06T03:28:06.892Z,1017.07
2017-08-06T03:29:16.509Z,1017.08
2017-08-06T03:30:26.753Z,1017.11
2017-08-06T03:31:36.692Z,1017.13
2017-08-06T03:32:46.312Z,1017.12
2017-08-06T03:33:56.550Z,1017.13
2017-08-06T03:35:06.466Z,1017.18
2017-08-06T03:36:16.696Z,1017.17
2017-08-06T03:37:26.945Z,1017.2
2017-08-06T03:38:37.187Z,1017.22
2017-08-06T03:39:47.420Z,1017.21
2017-08-06T03:40:57.643Z,1017.22
2017-08-06T03:42:07.559Z,1017.22
2017-08-06T03:43:17.783Z,1017.2
2017-08-06T03:44:28.011Z,1017.23
2017-08-06T03:45:38.242Z,1017.24
2017-08-06T03:46:48.164Z,1017.23
2017-08-06T03:47:58.098Z,1017.27
2017-08-06T03:49:08.343Z,1017.25
2017-08-06T03:50:17.953Z,1017.26
2017-08-06T03:51:28.192Z,1017.28
2017-08-06T03:52:38.108Z,1017.28
2017-08-06T03:53:48.027Z,1017.3
2017-08-06T03:54:57.969Z,1017.32
2017-08-06T03:56:07.290Z,1017.33
2017-08-06T03:57:17.537Z,1017.33
2017-08-06T03:58:27.472Z,1017.37
2017-08-06T03:59:37.421Z,1017.37
2017-08-06T04:00:47.078Z,1017.4
2017-08-06T04:01:57.047Z,1017.42
2017-08-06T04:03:07.338Z,1017.41
2017-08-06T04:04:17.275Z,1017.42
2017-08-06T04:05:27.228Z,1017.42
2017-08-06T04:06:37.454Z,1017.48
2017-08-06T04:07:47.074Z,1017.46
2017-08-06T04:08:56.379Z,1017.47
2017-08-06T04:10:06.639Z,1017.47
2017-08-06T04:11:16.576Z,1017.53
2017-08-06T04:12:26.205Z,1017.53
2017-08-06T04:13:36.441Z,1017.55
2017-08-06T04:14:46.694Z,1017.56
2017-08-06T04:15:56.609Z,1017.6
2017-08-06T04:17:06.235Z,1017.58
2017-08-06T04:18:16.164Z,1017.61
2017-08-06T04:19:25.775Z,1017.56
2017-08-06T04:20:35.717Z,1017.58
2017-08-06T04:21:45.972Z,1017.59
2017-08-06T04:22:55.922Z,1017.65
2017-08-06T04:24:05.553Z,1017.66
2017-08-06T04:25:15.484Z,1017.63
2017-08-06T04:26:25.108Z,1017.64
2017-08-06T04:27:35.045Z,1017.69
2017-08-06T04:28:44.967Z,1017.71
2017-08-06T04:29:55.198Z,1017.72
2017-08-06T04:31:05.127Z,1017.69
2017-08-06T04:32:15.358Z,1017.73
2017-08-06T04:33:24.669Z,1017.73
2017-08-06T04:34:34.298Z,1017.74
2017-08-06T04:35:43.930Z,1017.71
2017-08-06T04:36:54.160Z,1017.73
2017-08-06T04:38:04.085Z,1017.76
2017-08-06T04:39:14.007Z,1017.77
2017-08-06T04:40:23.677Z,1017.77
2017-08-06T04:41:33.621Z,1017.8
2017-08-06T04:42:43.863Z,1017.78
2017-08-06T04:43:53.788Z,1017.78
2017-08-06T04:45:03.713Z,1017.84
2017-08-06T04:46:13.658Z,1017.83
2017-08-06T04:47:23.577Z,1017.86
2017-08-06T04:48:32.572Z,1017.82
2017-08-06T04:49:42.821Z,1017.84
2017-08-06T04:50:52.440Z,1017.89
2017-08-06T04:52:02.078Z,1017.89
2017-08-06T04:53:11.415Z,1017.88
2017-08-06T04:54:21.030Z,1017.87
2017-08-06T04:55:31.261Z,1017.9
2017-08-06T04:56:40.572Z,1017.86
2017-08-06T04:57:49.886Z,1017.91
2017-08-06T04:59:00.116Z,1017.87
2017-08-06T05:00:10.034Z,1017.87
2017-08-06T05:01:20.278Z,1017.89
2017-08-06T05:02:30.206Z,1017.93
2017-08-06T05:03:40.436Z,1017.95
2017-08-06T05:04:50.061Z,1017.94
2017-08-06T05:05:59.995Z,1018
2017-08-06T05:07:09.912Z,1017.97
2017-08-06T05:08:19.571Z,1017.99
2017-08-06T05:09:29.811Z,1017.96
2017-08-06T05:10:39.731Z,1017.98
2017-08-06T05:11:49.343Z,1018
2017-08-06T05:12:58.959Z,1018.01
2017-08-06T05:14:09.195Z,1018
2017-08-06T05:15:19.448Z,1018.04
2017-08-06T05:16:29.058Z,1018.06
2017-08-06T05:17:38.976Z,1018.08
2017-08-06T05:18:48.591Z,1018.12
2017-08-06T05:19:58.198Z,1018.07
2017-08-06T05:21:08.120Z,1018.11
2017-08-06T05:22:18.354Z,1018.1
2017-08-06T05:23:27.981Z,1018.06
2017-08-06T05:24:37.905Z,1018.11
2017-08-06T05:25:47.829Z,1018.13
2017-08-06T05:26:58.068Z,1018.19
2017-08-06T05:28:07.997Z,1018.19
2017-08-06T05:29:18.228Z,1018.23
2017-08-06T05:30:28.147Z,1018.21
2017-08-06T05:31:38.086Z,1018.23
2017-08-06T05:32:47.709Z,1018.24
2017-08-06T05:33:57.650Z,1018.25
2017-08-06T05:35:07.879Z,1018.25
2017-08-06T05:36:18.123Z,1018.27
2017-08-06T05:37:28.052Z,1018.29
2017-08-06T05:38:38.293Z,1018.3
2017-08-06T05:39:48.240Z,1018.33
2017-08-06T05:40:58.164Z,1018.3
2017-08-06T05:42:08.082Z,1018.32
2017-08-06T05:43:18.018Z,1018.31
2017-08-06T05:44:27.656Z,1018.35
2017-08-06T05:45:37.883Z,1018.35
2017-08-06T05:46:48.116Z,1018.42
2017-08-06T05:47:58.048Z,1018.41
2017-08-06T05:49:07.667Z,1018.4
2017-08-06T05:50:17.593Z,1018.44
2017-08-06T05:51:27.518Z,1018.43
2017-08-06T05:52:37.442Z,1018.49
2017-08-06T05:53:47.363Z,1018.46
2017-08-06T05:54:56.995Z,1018.46
2017-08-06T05:56:06.931Z,1018.48
2017-08-06T05:57:16.864Z,1018.48
2017-08-06T05:58:26.194Z,1018.52
2017-08-06T05:59:35.810Z,1018.53
2017-08-06T06:00:45.743Z,1018.59
2017-08-06T06:01:55.707Z,1018.55
2017-08-06T06:03:05.943Z,1018.62
2017-08-06T06:04:15.886Z,1018.64
2017-08-06T06:05:25.196Z,1018.63
2017-08-06T06:06:34.822Z,1018.67
2017-08-06T06:07:45.056Z,1018.68
2017-08-06T06:08:55.292Z,1018.7
2017-08-06T06:10:05.228Z,1018.69
2017-08-06T06:11:15.460Z,1018.74
2017-08-06T06:12:25.390Z,1018.75
2017-08-06T06:13:35.617Z,1018.74
2017-08-06T06:14:45.849Z,1018.76
2017-08-06T06:15:55.465Z,1018.76
2017-08-06T06:17:05.396Z,1018.81
2017-08-06T06:18:15.648Z,1018.8
2017-08-06T06:19:25.880Z,1018.83
2017-08-06T06:20:36.107Z,1018.76
2017-08-06T06:21:46.351Z,1018.8
2017-08-06T06:22:56.283Z,1018.8
2017-08-06T06:24:05.939Z,1018.82
2017-08-06T06:25:15.584Z,1018.82
2017-08-06T06:26:24.898Z,1018.83
2017-08-06T06:27:34.822Z,1018.89
2017-08-06T06:28:44.911Z,1018.89
2017-08-06T06:29:55.147Z,1018.88
2017-08-06T06:31:05.137Z,1018.89
2017-08-06T06:32:14.767Z,1018.9
2017-08-06T06:33:24.709Z,1018.91
2017-08-06T06:34:34.667Z,1018.92
2017-08-06T06:35:44.300Z,1018.91
2017-08-06T06:36:53.930Z,1018.94
2017-08-06T06:38:04.185Z,1018.94
2017-08-06T06:39:13.798Z,1018.95
2017-08-06T06:40:23.737Z,1018.97
2017-08-06T06:41:33.964Z,1019.02
2017-08-06T06:42:43.280Z,1019.02
2017-08-06T06:43:53.213Z,1019.01
2017-08-06T06:45:03.455Z,1019.03
2017-08-06T06:46:13.750Z,1019.06
2017-08-06T06:47:23.679Z,1019.04
2017-08-06T06:48:33.934Z,1019.05
2017-08-06T06:49:44.173Z,1019.06
2017-08-06T06:50:53.782Z,1019.03
2017-08-06T06:52:04.848Z,1019.09
2017-08-06T06:53:14.820Z,1019.11
2017-08-06T06:54:24.745Z,1019.14
2017-08-06T06:55:35.458Z,1019.18
2017-08-06T06:56:46.103Z,1019.16
2017-08-06T06:57:56.129Z,1019.16
2017-08-06T06:59:06.162Z,1019.15
2017-08-06T07:00:16.080Z,1019.17
2017-08-06T07:01:25.516Z,1019.19
2017-08-06T07:02:35.468Z,1019.19
2017-08-06T07:03:45.401Z,1019.18
2017-08-06T07:04:55.634Z,1019.22
2017-08-06T07:06:06.062Z,1019.21
2017-08-06T07:07:15.707Z,1019.18
2017-08-06T07:08:26.499Z,1019.2
2017-08-06T07:09:36.906Z,1019.2
2017-08-06T07:10:46.933Z,1019.23
2017-08-06T07:11:57.184Z,1019.22
2017-08-06T07:13:07.247Z,1019.25
2017-08-06T07:14:17.862Z,1019.26
2017-08-06T07:15:27.865Z,1019.26
2017-08-06T07:16:37.849Z,1019.29
2017-08-06T07:17:47.169Z,1019.27
2017-08-06T07:18:57.108Z,1019.32
2017-08-06T07:20:07.368Z,1019.3
2017-08-06T07:21:17.322Z,1019.28
2017-08-06T07:22:27.581Z,1019.34
2017-08-06T07:23:37.520Z,1019.35
2017-08-06T07:24:47.745Z,1019.37
2017-08-06T07:25:58.008Z,1019.38
2017-08-06T07:27:07.926Z,1019.42
2017-08-06T07:28:18.173Z,1019.38
2017-08-06T07:29:28.407Z,1019.39
2017-08-06T07:30:38.344Z,1019.38
2017-08-06T07:31:48.315Z,1019.39
2017-08-06T07:32:57.931Z,1019.35
2017-08-06T07:34:07.858Z,1019.37
2017-08-06T07:35:17.168Z,1019.39
2017-08-06T07:36:27.406Z,1019.38
2017-08-06T07:37:37.063Z,1019.35
2017-08-06T07:38:47.005Z,1019.35
2017-08-06T07:39:56.937Z,1019.33
2017-08-06T07:41:06.556Z,1019.34
2017-08-06T07:42:16.799Z,1019.36
2017-08-06T07:43:26.459Z,1019.38
2017-08-06T07:44:36.390Z,1019.38
2017-08-06T07:45:46.642Z,1019.36
2017-08-06T07:46:56.609Z,1019.36
2017-08-06T07:48:06.839Z,1019.37
2017-08-06T07:49:16.773Z,1019.34
2017-08-06T07:50:26.392Z,1019.31
2017-08-06T07:51:36.631Z,1019.33
2017-08-06T07:52:46.556Z,1019.33
2017-08-06T07:53:56.508Z,1019.33
2017-08-06T07:55:06.759Z,1019.33
2017-08-06T07:56:17.010Z,1019.29
2017-08-06T07:57:26.943Z,1019.35
2017-08-06T07:58:36.567Z,1019.34
2017-08-06T07:59:46.786Z,1019.38
2017-08-06T08:00:57.041Z,1019.35
2017-08-06T08:02:06.661Z,1019.36
2017-08-06T08:03:16.590Z,1019.39
2017-08-06T08:04:26.846Z,1019.39
2017-08-06T08:05:36.792Z,1019.39
2017-08-06T08:06:46.721Z,1019.36
2017-08-06T08:07:56.964Z,1019.43
2017-08-06T08:09:06.609Z,1019.4
2017-08-06T08:10:16.555Z,1019.43
2017-08-06T08:11:26.172Z,1019.45
2017-08-06T08:12:35.491Z,1019.45
2017-08-06T08:13:45.452Z,1019.47
2017-08-06T08:14:55.079Z,1019.48
2017-08-06T08:16:04.731Z,1019.46
2017-08-06T08:17:14.043Z,1019.47
2017-08-06T08:18:23.974Z,1019.46
2017-08-06T08:19:34.222Z,1019.48
2017-08-06T08:20:44.149Z,1019.47
2017-08-06T08:21:54.071Z,1019.47
2017-08-06T08:23:03.706Z,1019.46
2017-08-06T08:24:13.947Z,1019.48
2017-08-06T08:25:23.593Z,1019.46
2017-08-06T08:26:33.824Z,1019.45
2017-08-06T08:27:43.746Z,1019.42
2017-08-06T08:28:53.685Z,1019.46
2017-08-06T08:30:03.638Z,1019.44
2017-08-06T08:31:13.566Z,1019.45
2017-08-06T08:32:22.878Z,1019.46
2017-08-06T08:33:32.812Z,1019.48
2017-08-06T08:34:42.728Z,1019.45
2017-08-06T08:35:52.359Z,1019.46
2017-08-06T08:37:02.279Z,1019.47
2017-08-06T08:38:11.629Z,1019.44
2017-08-06T08:39:20.959Z,1019.42
2017-08-06T08:40:30.893Z,1019.43
2017-08-06T08:41:40.826Z,1019.44
2017-08-06T08:42:49.846Z,1019.48
2017-08-06T08:43:59.794Z,1019.47
2017-08-06T08:45:09.748Z,1019.47
2017-08-06T08:46:19.679Z,1019.45
2017-08-06T08:47:29.607Z,1019.47
2017-08-06T08:48:39.228Z,1019.46
2017-08-06T08:49:48.558Z,1019.44
2017-08-06T08:50:58.207Z,1019.46
2017-08-06T08:52:08.143Z,1019.46
2017-08-06T08:53:18.401Z,1019.49
2017-08-06T08:54:28.356Z,1019.46
2017-08-06T08:55:38.340Z,1019.56
2017-08-06T08:56:48.293Z,1019.54
2017-08-06T08:57:58.569Z,1019.59
2017-08-06T08:59:08.801Z,1019.58
2017-08-06T09:00:19.054Z,1019.58
2017-08-06T09:01:29.295Z,1019.57
2017-08-06T09:02:39.235Z,1019.56
2017-08-06T09:03:49.170Z,1019.57
2017-08-06T09:04:58.524Z,1019.58
2017-08-06T09:06:08.789Z,1019.59
2017-08-06T09:07:18.420Z,1019.61
2017-08-06T09:08:28.678Z,1019.61
2017-08-06T09:09:38.925Z,1019.57
2017-08-06T09:10:48.544Z,1019.57
2017-08-06T09:11:58.790Z,1019.58
2017-08-06T09:13:08.143Z,1019.58
2017-08-06T09:14:18.412Z,1019.56
2017-08-06T09:15:28.343Z,1019.55
2017-08-06T09:16:38.590Z,1019.56
2017-08-06T09:17:48.827Z,1019.61
2017-08-06T09:18:59.072Z,1019.57
2017-08-06T09:20:09.313Z,1019.55
2017-08-06T09:21:19.274Z,1019.53
2017-08-06T09:22:29.524Z,1019.55
2017-08-06T09:23:39.457Z,1019.54
2017-08-06T09:24:49.406Z,1019.57
2017-08-06T09:25:59.361Z,1019.58
2017-08-06T09:27:09.321Z,1019.57
2017-08-06T09:28:19.255Z,1019.56
2017-08-06T09:29:29.516Z,1019.56
2017-08-06T09:30:39.768Z,1019.56
2017-08-06T09:31:50.007Z,1019.57
2017-08-06T09:32:59.664Z,1019.59
2017-08-06T09:34:08.992Z,1019.62
2017-08-06T09:35:18.328Z,1019.62
2017-08-06T09:36:28.295Z,1019.63
2017-08-06T09:37:38.215Z,1019.62
2017-08-06T09:38:47.842Z,1019.62
2017-08-06T09:39:57.154Z,1019.59
2017-08-06T09:41:07.391Z,1019.59
2017-08-06T09:42:17.346Z,1019.54
2017-08-06T09:43:26.970Z,1019.58
2017-08-06T09:44:37.213Z,1019.56
2017-08-06T09:45:46.866Z,1019.54
2017-08-06T09:46:57.123Z,1019.55
2017-08-06T09:48:07.380Z,1019.55
2017-08-06T09:49:17.320Z,1019.53
2017-08-06T09:50:27.594Z,1019.54
2017-08-06T09:51:37.835Z,1019.49
2017-08-06T09:52:47.778Z,1019.53
2017-08-06T09:53:58.005Z,1019.51
2017-08-06T09:55:07.938Z,1019.53
2017-08-06T09:56:17.862Z,1019.53
2017-08-06T09:57:27.863Z,1019.53
2017-08-06T09:58:37.810Z,1019.48
2017-08-06T09:59:48.053Z,1019.5
2017-08-06T10:00:58.002Z,1019.48
2017-08-06T10:02:07.673Z,1019.49
2017-08-06T10:03:17.629Z,1019.47
2017-08-06T10:04:27.879Z,1019.44
2017-08-06T10:05:37.504Z,1019.44
2017-08-06T10:06:47.732Z,1019.48
2017-08-06T10:07:57.985Z,1019.46
2017-08-06T10:09:07.611Z,1019.5
2017-08-06T10:10:17.590Z,1019.46
2017-08-06T10:11:27.549Z,1019.53
2017-08-06T10:12:37.477Z,1019.51
2017-08-06T10:13:47.420Z,1019.46
2017-08-06T10:14:57.672Z,1019.49
2017-08-06T10:16:07.919Z,1019.43
2017-08-06T10:17:17.560Z,1019.4
2017-08-06T10:18:27.802Z,1019.4
2017-08-06T10:19:38.045Z,1019.4
2017-08-06T10:20:48.282Z,1019.39
2017-08-06T10:21:58.522Z,1019.38
2017-08-06T10:23:08.777Z,1019.36
2017-08-06T10:24:18.713Z,1019.36
2017-08-06T10:25:28.352Z,1019.36
2017-08-06T10:26:38.280Z,1019.31
2017-08-06T10:27:47.890Z,1019.3
2017-08-06T10:28:57.807Z,1019.32
2017-08-06T10:30:08.046Z,1019.29
2017-08-06T10:31:18.286Z,1019.27
2017-08-06T10:32:27.601Z,1019.28
2017-08-06T10:33:37.527Z,1019.27
2017-08-06T10:34:47.449Z,1019.24
2017-08-06T10:35:56.758Z,1019.24
2017-08-06T10:37:06.687Z,1019.22
2017-08-06T10:40:48.975Z,1019.17
2017-08-06T10:41:58.943Z,1019.14
2017-08-06T10:43:08.280Z,1019.14
2017-08-06T10:44:18.201Z,1019.17
2017-08-06T10:45:28.128Z,1019.15
2017-08-06T10:46:38.357Z,1019.1
2017-08-06T10:47:47.987Z,1019.14
2017-08-06T10:48:57.307Z,1019.12
2017-08-06T10:50:06.948Z,1019.13
2017-08-06T10:51:17.199Z,1019.12
2017-08-06T10:52:26.829Z,1019.06
2017-08-06T10:53:36.457Z,1019.08
2017-08-06T10:54:46.079Z,1019.11
2017-08-06T10:55:56.032Z,1019.07
2017-08-06T10:57:05.963Z,1019.05
2017-08-06T10:58:15.590Z,1019.02
2017-08-06T10:59:25.538Z,1019.06
2017-08-06T11:00:35.777Z,1019.02
2017-08-06T11:01:45.416Z,1019.01
2017-08-06T11:02:55.062Z,1019
2017-08-06T11:04:05.284Z,1019.02
2017-08-06T11:05:15.241Z,1019.03
2017-08-06T11:06:25.469Z,1019.06
2017-08-06T11:07:35.408Z,1019.04
2017-08-06T11:08:44.408Z,1019.03
2017-08-06T11:09:53.725Z,1018.98
2017-08-06T11:11:03.341Z,1019.01
2017-08-06T11:12:13.588Z,1018.97
2017-08-06T11:13:23.828Z,1018.96
2017-08-06T11:14:33.445Z,1018.98
2017-08-06T11:15:43.063Z,1018.98
2017-08-06T11:16:53.019Z,1019
2017-08-06T11:18:02.642Z,1018.97
2017-08-06T11:19:11.982Z,1018.97
2017-08-06T11:20:21.604Z,1018.98
2017-08-06T11:21:31.537Z,1018.95
2017-08-06T11:22:41.471Z,1018.96
2017-08-06T11:23:51.090Z,1018.93
2017-08-06T11:25:01.003Z,1018.97
2017-08-06T11:26:10.931Z,1018.94
2017-08-06T11:27:20.868Z,1018.91
2017-08-06T11:28:30.185Z,1018.9
2017-08-06T11:29:39.495Z,1018.85
2017-08-06T11:30:49.422Z,1018.9
2017-08-06T11:31:59.361Z,1018.86
2017-08-06T11:33:09.283Z,1018.87
2017-08-06T11:34:19.528Z,1018.81
2017-08-06T11:35:29.460Z,1018.85
2017-08-06T11:36:39.689Z,1018.88
2017-08-06T11:37:49.302Z,1018.89
2017-08-06T11:38:58.934Z,1018.87
2017-08-06T11:40:08.565Z,1018.88
2017-08-06T11:41:18.484Z,1018.84
2017-08-06T11:42:28.432Z,1018.87
2017-08-06T11:43:38.374Z,1018.85
2017-08-06T11:44:48.316Z,1018.84
2017-08-06T11:45:58.236Z,1018.82
2017-08-06T11:47:07.857Z,1018.82
2017-08-06T11:48:17.785Z,1018.79
2017-08-06T11:49:27.712Z,1018.84
2017-08-06T11:50:37.327Z,1018.8
2017-08-06T11:51:46.970Z,1018.8
2017-08-06T11:52:56.583Z,1018.76
2017-08-06T11:54:06.831Z,1018.76
2017-08-06T11:55:16.770Z,1018.79
2017-08-06T11:56:26.390Z,1018.75
2017-08-06T11:57:36.311Z,1018.75
2017-08-06T11:58:46.557Z,1018.73
2017-08-06T11:59:55.886Z,1018.73
2017-08-06T12:01:05.817Z,1018.78
2017-08-06T12:02:15.132Z,1018.78
2017-08-06T12:03:25.050Z,1018.77
2017-08-06T12:04:35.276Z,1018.75
2017-08-06T12:05:44.908Z,1018.73
2017-08-06T12:06:54.835Z,1018.74
2017-08-06T12:08:04.156Z,1018.72
2017-08-06T12:09:13.498Z,1018.71
2017-08-06T12:10:23.131Z,1018.7
2017-08-06T12:11:33.069Z,1018.72
2017-08-06T12:12:42.707Z,1018.69
2017-08-06T12:13:52.666Z,1018.77
2017-08-06T12:15:02.594Z,1018.73
2017-08-06T12:16:11.299Z,1018.72
2017-08-06T12:17:20.932Z,1018.7
2017-08-06T12:18:30.859Z,1018.71
2017-08-06T12:19:40.787Z,1018.79
2017-08-06T12:20:50.709Z,1018.77
2017-08-06T12:22:00.336Z,1018.76
2017-08-06T12:23:09.960Z,1018.78
2017-08-06T12:24:19.908Z,1018.76
2017-08-06T12:25:29.864Z,1018.75
2017-08-06T12:26:39.492Z,1018.73
2017-08-06T12:27:49.427Z,1018.72
2017-08-06T12:28:59.675Z,1018.67
2017-08-06T12:30:09.915Z,1018.72
2017-08-06T12:31:19.597Z,1018.72
2017-08-06T12:32:29.543Z,1018.78
2017-08-06T12:33:39.788Z,1018.77
2017-08-06T12:34:49.717Z,1018.82
2017-08-06T12:35:59.645Z,1018.77
2017-08-06T12:37:09.948Z,1018.75
2017-08-06T12:38:19.894Z,1018.73
2017-08-06T12:39:29.824Z,1018.76
2017-08-06T12:40:39.449Z,1018.72
2017-08-06T12:41:49.685Z,1018.71
2017-08-06T12:42:59.632Z,1018.66
2017-08-06T12:44:09.622Z,1018.68
2017-08-06T12:45:19.588Z,1018.64
2017-08-06T12:46:29.540Z,1018.63
2017-08-06T12:47:39.815Z,1018.67
2017-08-06T12:48:50.341Z,1018.68
2017-08-06T12:50:00.311Z,1018.72
2017-08-06T12:51:09.954Z,1018.67
2017-08-06T12:52:20.005Z,1018.65
2017-08-06T12:53:30.257Z,1018.66
2017-08-06T12:54:40.249Z,1018.65
2017-08-06T12:55:50.216Z,1018.65
2017-08-06T12:57:00.723Z,1018.68
2017-08-06T12:58:10.363Z,1018.67
2017-08-06T12:59:20.311Z,1018.68
2017-08-06T13:00:30.258Z,1018.68
2017-08-06T13:01:40.202Z,1018.7
2017-08-06T13:02:49.852Z,1018.68
2017-08-06T13:03:59.220Z,1018.68
2017-08-06T13:05:09.196Z,1018.67
2017-08-06T13:06:18.907Z,1018.7
2017-08-06T13:07:28.588Z,1018.74
2017-08-06T13:08:38.900Z,1018.73
2017-08-06T13:09:48.883Z,1018.71
2017-08-06T13:10:58.861Z,1018.72
2017-08-06T13:12:08.786Z,1018.69
2017-08-06T13:13:18.430Z,1018.66
2017-08-06T13:14:28.681Z,1018.67
2017-08-06T13:15:38.068Z,1018.69
2017-08-06T13:16:48.332Z,1018.69
2017-08-06T13:17:57.968Z,1018.74
2017-08-06T13:19:07.334Z,1018.73
2017-08-06T13:20:17.310Z,1018.74
2017-08-06T13:21:27.280Z,1018.67
2017-08-06T13:22:37.271Z,1018.67
2017-08-06T13:23:47.225Z,1018.68
2017-08-06T13:24:57.522Z,1018.62
2017-08-06T13:26:07.764Z,1018.6
2017-08-06T13:27:16.805Z,1018.61
2017-08-06T13:28:27.106Z,1018.62
2017-08-06T13:29:37.106Z,1018.61
2017-08-06T13:30:46.789Z,1018.57
2017-08-06T13:31:56.748Z,1018.56
2017-08-06T13:33:06.713Z,1018.55
2017-08-06T13:34:16.377Z,1018.54
2017-08-06T13:35:26.318Z,1018.56
2017-08-06T13:36:36.594Z,1018.56
2017-08-06T13:37:46.898Z,1018.61
2017-08-06T13:38:56.261Z,1018.57
2017-08-06T13:40:05.622Z,1018.59
2017-08-06T13:41:15.877Z,1018.65
2017-08-06T13:42:25.548Z,1018.6
2017-08-06T13:43:35.805Z,1018.63
2017-08-06T13:44:45.499Z,1018.57
2017-08-06T13:45:55.467Z,1018.56
2017-08-06T13:47:05.435Z,1018.53
2017-08-06T13:48:15.732Z,1018.54
2017-08-06T13:49:25.423Z,1018.55
2017-08-06T13:50:35.411Z,1018.55
2017-08-06T13:51:45.708Z,1018.54
2017-08-06T13:52:55.977Z,1018.55
2017-08-06T13:54:05.949Z,1018.5
2017-08-06T13:55:15.953Z,1018.52
2017-08-06T13:56:25.899Z,1018.49
2017-08-06T13:57:35.892Z,1018.51
2017-08-06T13:58:45.956Z,1018.56
2017-08-06T13:59:55.605Z,1018.53
2017-08-06T14:01:05.558Z,1018.56
2017-08-06T14:02:15.831Z,1018.54
2017-08-06T14:03:25.503Z,1018.54
2017-08-06T14:04:35.487Z,1018.51
2017-08-06T14:05:44.821Z,1018.5
2017-08-06T14:06:54.154Z,1018.53
2017-08-06T14:08:03.810Z,1018.52
2017-08-06T14:09:13.762Z,1018.55
2017-08-06T14:10:23.459Z,1018.58
2017-08-06T14:11:33.420Z,1018.62
2017-08-06T14:12:42.770Z,1018.57
2017-08-06T14:13:52.434Z,1018.65